sensor_id;sensor_type;location;lat;lon;timestamp;P1;durP1;ratioP1;P2;durP2;ratioP2
52368;SDS011;38298;50.346;3.526;2022-08-03T00:01:29;5.45;;;1.00;;
52368;SDS011;38298;50.346;3.526;2022-08-03T00:03:55;2.42;;;0.82;;
52368;SDS011;38298;50.346;3.526;2022-08-03T00:06:21;1.23;;;0.70;;
52368;SDS011;38298;50.346;3.526;2022-08-03T00:08:48;5.97;;;1.30;;
52368;SDS011;38298;50.346;3.526;2022-08-03T00:11:14;4.78;;;1.48;;
52368;SDS011;38298;50.346;3.526;2022-08-03T00:13:40;4.20;;;1.02;;
52368;SDS011;38298;50.346;3.526;2022-08-03T00:16:06;3.58;;;0.90;;
52368;SDS011;38298;50.346;3.526;2022-08-03T00:18:32;4.22;;;1.20;;
52368;SDS011;38298;50.346;3.526;2022-08-03T00:20:58;6.57;;;1.17;;
52368;SDS011;38298;50.346;3.526;2022-08-03T00:23:24;4.60;;;1.00;;
52368;SDS011;38298;50.346;3.526;2022-08-03T00:25:50;5.90;;;0.80;;
52368;SDS011;38298;50.346;3.526;2022-08-03T00:28:17;11.25;;;1.27;;
52368;SDS011;38298;50.346;3.526;2022-08-03T00:30:43;5.20;;;1.38;;
52368;SDS011;38298;50.346;3.526;2022-08-03T00:33:09;6.40;;;0.90;;
52368;SDS011;38298;50.346;3.526;2022-08-03T00:35:35;3.83;;;0.80;;
52368;SDS011;38298;50.346;3.526;2022-08-03T00:38:01;2.40;;;1.00;;
52368;SDS011;38298;50.346;3.526;2022-08-03T00:40:27;5.80;;;0.98;;
52368;SDS011;38298;50.346;3.526;2022-08-03T00:42:54;3.90;;;1.00;;
52368;SDS011;38298;50.346;3.526;2022-08-03T00:45:22;4.85;;;1.10;;
52368;SDS011;38298;50.346;3.526;2022-08-03T00:47:48;3.97;;;1.15;;
52368;SDS011;38298;50.346;3.526;2022-08-03T00:50:15;2.92;;;1.35;;
52368;SDS011;38298;50.346;3.526;2022-08-03T00:52:41;6.20;;;1.35;;
52368;SDS011;38298;50.346;3.526;2022-08-03T00:55:08;4.15;;;1.00;;
52368;SDS011;38298;50.346;3.526;2022-08-03T00:57:34;2.60;;;0.80;;
52368;SDS011;38298;50.346;3.526;2022-08-03T01:00:01;3.15;;;0.93;;
52368;SDS011;38298;50.346;3.526;2022-08-03T01:02:27;3.10;;;0.93;;
52368;SDS011;38298;50.346;3.526;2022-08-03T01:04:54;5.03;;;1.00;;
52368;SDS011;38298;50.346;3.526;2022-08-03T01:13:01;5.03;;;1.45;;
52368;SDS011;38298;50.346;3.526;2022-08-03T01:17:56;3.72;;;0.90;;
52368;SDS011;38298;50.346;3.526;2022-08-03T01:20:23;9.32;;;0.80;;
52368;SDS011;38298;50.346;3.526;2022-08-03T01:30:39;3.72;;;0.80;;
52368;SDS011;38298;50.346;3.526;2022-08-03T01:33:09;9.45;;;1.42;;
52368;SDS011;38298;50.346;3.526;2022-08-03T01:35:41;5.30;;;1.00;;
52368;SDS011;38298;50.346;3.526;2022-08-03T01:38:12;5.25;;;0.60;;
52368;SDS011;38298;50.346;3.526;2022-08-03T01:40:40;2.75;;;0.77;;
52368;SDS011;38298;50.346;3.526;2022-08-03T01:43:08;4.45;;;0.90;;
52368;SDS011;38298;50.346;3.526;2022-08-03T01:45:35;3.25;;;0.95;;
52368;SDS011;38298;50.346;3.526;2022-08-03T01:48:02;6.82;;;1.35;;
52368;SDS011;38298;50.346;3.526;2022-08-03T01:50:29;5.45;;;1.10;;
52368;SDS011;38298;50.346;3.526;2022-08-03T01:52:55;2.97;;;0.90;;
52368;SDS011;38298;50.346;3.526;2022-08-03T01:55:22;4.20;;;1.30;;
52368;SDS011;38298;50.346;3.526;2022-08-03T01:57:51;3.05;;;1.02;;
52368;SDS011;38298;50.346;3.526;2022-08-03T02:00:18;3.38;;;0.80;;
52368;SDS011;38298;50.346;3.526;2022-08-03T02:02:45;3.13;;;0.90;;
52368;SDS011;38298;50.346;3.526;2022-08-03T02:05:14;6.00;;;1.08;;
52368;SDS011;38298;50.346;3.526;2022-08-03T02:07:41;3.80;;;1.10;;
52368;SDS011;38298;50.346;3.526;2022-08-03T02:10:08;4.43;;;1.00;;
52368;SDS011;38298;50.346;3.526;2022-08-03T02:12:34;3.78;;;1.00;;
52368;SDS011;38298;50.346;3.526;2022-08-03T02:15:02;4.32;;;1.05;;
52368;SDS011;38298;50.346;3.526;2022-08-03T02:17:28;5.32;;;1.20;;
52368;SDS011;38298;50.346;3.526;2022-08-03T02:19:55;6.38;;;1.10;;
52368;SDS011;38298;50.346;3.526;2022-08-03T02:22:22;5.35;;;1.33;;
52368;SDS011;38298;50.346;3.526;2022-08-03T02:24:49;3.50;;;1.30;;
52368;SDS011;38298;50.346;3.526;2022-08-03T02:27:19;3.08;;;0.98;;
52368;SDS011;38298;50.346;3.526;2022-08-03T02:29:48;5.95;;;1.30;;
52368;SDS011;38298;50.346;3.526;2022-08-03T02:32:16;6.67;;;1.40;;
52368;SDS011;38298;50.346;3.526;2022-08-03T02:34:44;3.38;;;1.05;;
52368;SDS011;38298;50.346;3.526;2022-08-03T02:37:11;9.50;;;1.00;;
52368;SDS011;38298;50.346;3.526;2022-08-03T02:39:38;3.60;;;0.98;;
52368;SDS011;38298;50.346;3.526;2022-08-03T02:42:07;7.03;;;0.85;;
52368;SDS011;38298;50.346;3.526;2022-08-03T02:44:34;4.00;;;0.90;;
52368;SDS011;38298;50.346;3.526;2022-08-03T02:47:04;2.28;;;1.00;;
52368;SDS011;38298;50.346;3.526;2022-08-03T02:49:31;3.95;;;0.95;;
52368;SDS011;38298;50.346;3.526;2022-08-03T02:51:58;2.03;;;1.00;;
52368;SDS011;38298;50.346;3.526;2022-08-03T02:54:24;5.82;;;1.42;;
52368;SDS011;38298;50.346;3.526;2022-08-03T02:56:51;6.97;;;1.63;;
52368;SDS011;38298;50.346;3.526;2022-08-03T02:59:19;3.92;;;1.88;;
52368;SDS011;38298;50.346;3.526;2022-08-03T03:01:45;3.50;;;0.85;;
52368;SDS011;38298;50.346;3.526;2022-08-03T03:04:12;6.72;;;0.80;;
52368;SDS011;38298;50.346;3.526;2022-08-03T03:06:38;3.47;;;1.05;;
52368;SDS011;38298;50.346;3.526;2022-08-03T03:09:05;6.30;;;1.08;;
52368;SDS011;38298;50.346;3.526;2022-08-03T03:11:31;4.18;;;0.85;;
52368;SDS011;38298;50.346;3.526;2022-08-03T03:13:59;3.88;;;1.27;;
52368;SDS011;38298;50.346;3.526;2022-08-03T03:16:25;3.05;;;0.98;;
52368;SDS011;38298;50.346;3.526;2022-08-03T03:18:54;5.65;;;1.00;;
52368;SDS011;38298;50.346;3.526;2022-08-03T03:21:20;7.13;;;1.15;;
52368;SDS011;38298;50.346;3.526;2022-08-03T03:23:47;11.48;;;1.30;;
52368;SDS011;38298;50.346;3.526;2022-08-03T03:26:13;4.10;;;0.90;;
52368;SDS011;38298;50.346;3.526;2022-08-03T03:28:40;3.72;;;1.23;;
52368;SDS011;38298;50.346;3.526;2022-08-03T03:31:06;3.42;;;1.35;;
52368;SDS011;38298;50.346;3.526;2022-08-03T03:33:33;5.13;;;1.00;;
52368;SDS011;38298;50.346;3.526;2022-08-03T03:35:59;6.78;;;1.00;;
52368;SDS011;38298;50.346;3.526;2022-08-03T03:38:25;5.47;;;1.25;;
52368;SDS011;38298;50.346;3.526;2022-08-03T03:40:52;6.47;;;1.42;;
52368;SDS011;38298;50.346;3.526;2022-08-03T03:43:18;8.80;;;1.15;;
52368;SDS011;38298;50.346;3.526;2022-08-03T03:45:44;5.97;;;0.90;;
52368;SDS011;38298;50.346;3.526;2022-08-03T03:48:11;6.30;;;1.00;;
52368;SDS011;38298;50.346;3.526;2022-08-03T03:50:37;6.88;;;1.02;;
52368;SDS011;38298;50.346;3.526;2022-08-03T03:53:07;3.55;;;1.42;;
52368;SDS011;38298;50.346;3.526;2022-08-03T03:55:34;4.50;;;1.00;;
52368;SDS011;38298;50.346;3.526;2022-08-03T03:58:00;5.72;;;1.10;;
52368;SDS011;38298;50.346;3.526;2022-08-03T04:00:28;4.70;;;0.93;;
52368;SDS011;38298;50.346;3.526;2022-08-03T04:02:54;7.80;;;1.10;;
52368;SDS011;38298;50.346;3.526;2022-08-03T04:05:20;4.68;;;0.90;;
52368;SDS011;38298;50.346;3.526;2022-08-03T04:08:06;5.45;;;1.00;;
52368;SDS011;38298;50.346;3.526;2022-08-03T04:13:23;4.18;;;0.90;;
52368;SDS011;38298;50.346;3.526;2022-08-03T04:15:49;3.58;;;0.93;;
52368;SDS011;38298;50.346;3.526;2022-08-03T04:18:16;3.97;;;1.10;;
52368;SDS011;38298;50.346;3.526;2022-08-03T04:20:43;5.82;;;1.63;;
52368;SDS011;38298;50.346;3.526;2022-08-03T04:23:10;8.40;;;0.90;;
52368;SDS011;38298;50.346;3.526;2022-08-03T04:25:38;6.85;;;1.10;;
52368;SDS011;38298;50.346;3.526;2022-08-03T04:28:05;16.20;;;1.35;;
52368;SDS011;38298;50.346;3.526;2022-08-03T04:30:32;5.68;;;0.98;;
52368;SDS011;38298;50.346;3.526;2022-08-03T04:32:59;4.88;;;1.20;;
52368;SDS011;38298;50.346;3.526;2022-08-03T04:35:30;5.20;;;1.08;;
52368;SDS011;38298;50.346;3.526;2022-08-03T04:37:59;5.63;;;1.50;;
52368;SDS011;38298;50.346;3.526;2022-08-03T04:40:29;2.67;;;0.98;;
52368;SDS011;38298;50.346;3.526;2022-08-03T04:42:55;2.53;;;1.02;;
52368;SDS011;38298;50.346;3.526;2022-08-03T04:45:22;5.65;;;1.00;;
52368;SDS011;38298;50.346;3.526;2022-08-03T04:47:49;8.95;;;1.20;;
52368;SDS011;38298;50.346;3.526;2022-08-03T04:50:16;3.10;;;0.95;;
52368;SDS011;38298;50.346;3.526;2022-08-03T04:52:42;4.20;;;1.20;;
52368;SDS011;38298;50.346;3.526;2022-08-03T04:55:09;4.80;;;1.17;;
52368;SDS011;38298;50.346;3.526;2022-08-03T04:57:35;2.50;;;0.98;;
52368;SDS011;38298;50.346;3.526;2022-08-03T05:00:02;4.18;;;0.95;;
52368;SDS011;38298;50.346;3.526;2022-08-03T05:02:28;10.07;;;2.38;;
52368;SDS011;38298;50.346;3.526;2022-08-03T05:04:55;6.40;;;1.13;;
52368;SDS011;38298;50.346;3.526;2022-08-03T05:07:21;2.15;;;0.93;;
52368;SDS011;38298;50.346;3.526;2022-08-03T05:09:47;3.35;;;1.17;;
52368;SDS011;38298;50.346;3.526;2022-08-03T05:12:13;5.43;;;1.52;;
52368;SDS011;38298;50.346;3.526;2022-08-03T05:14:39;3.15;;;1.17;;
52368;SDS011;38298;50.346;3.526;2022-08-03T05:17:06;6.32;;;1.60;;
52368;SDS011;38298;50.346;3.526;2022-08-03T05:19:32;6.43;;;2.03;;
52368;SDS011;38298;50.346;3.526;2022-08-03T05:21:58;3.80;;;1.83;;
52368;SDS011;38298;50.346;3.526;2022-08-03T05:24:24;7.10;;;1.60;;
52368;SDS011;38298;50.346;3.526;2022-08-03T05:26:51;2.13;;;1.40;;
52368;SDS011;38298;50.346;3.526;2022-08-03T05:29:17;9.50;;;1.30;;
52368;SDS011;38298;50.346;3.526;2022-08-03T05:31:43;5.18;;;1.85;;
52368;SDS011;38298;50.346;3.526;2022-08-03T05:34:09;6.25;;;1.60;;
52368;SDS011;38298;50.346;3.526;2022-08-03T05:36:35;5.07;;;1.23;;
52368;SDS011;38298;50.346;3.526;2022-08-03T05:39:01;3.00;;;1.10;;
52368;SDS011;38298;50.346;3.526;2022-08-03T05:41:27;6.75;;;1.10;;
52368;SDS011;38298;50.346;3.526;2022-08-03T05:43:53;5.78;;;1.55;;
52368;SDS011;38298;50.346;3.526;2022-08-03T05:46:23;6.90;;;1.40;;
52368;SDS011;38298;50.346;3.526;2022-08-03T05:48:49;3.80;;;1.00;;
52368;SDS011;38298;50.346;3.526;2022-08-03T05:51:15;1.77;;;1.00;;
52368;SDS011;38298;50.346;3.526;2022-08-03T05:53:41;5.43;;;1.23;;
52368;SDS011;38298;50.346;3.526;2022-08-03T05:56:08;4.18;;;1.23;;
52368;SDS011;38298;50.346;3.526;2022-08-03T05:58:34;5.40;;;1.00;;
52368;SDS011;38298;50.346;3.526;2022-08-03T06:01:00;4.40;;;1.25;;
52368;SDS011;38298;50.346;3.526;2022-08-03T06:03:26;4.43;;;1.00;;
52368;SDS011;38298;50.346;3.526;2022-08-03T06:05:52;6.53;;;1.60;;
52368;SDS011;38298;50.346;3.526;2022-08-03T06:08:20;3.22;;;0.90;;
52368;SDS011;38298;50.346;3.526;2022-08-03T06:10:47;4.20;;;1.17;;
52368;SDS011;38298;50.346;3.526;2022-08-03T06:13:13;4.35;;;0.88;;
52368;SDS011;38298;50.346;3.526;2022-08-03T06:15:39;4.38;;;1.15;;
52368;SDS011;38298;50.346;3.526;2022-08-03T06:18:05;9.68;;;1.52;;
52368;SDS011;38298;50.346;3.526;2022-08-03T06:20:32;7.20;;;1.30;;
52368;SDS011;38298;50.346;3.526;2022-08-03T06:22:58;6.22;;;0.68;;
52368;SDS011;38298;50.346;3.526;2022-08-03T06:25:24;4.25;;;1.15;;
52368;SDS011;38298;50.346;3.526;2022-08-03T06:27:50;8.68;;;1.13;;
52368;SDS011;38298;50.346;3.526;2022-08-03T06:30:16;4.03;;;1.20;;
52368;SDS011;38298;50.346;3.526;2022-08-03T06:32:43;5.38;;;1.02;;
52368;SDS011;38298;50.346;3.526;2022-08-03T06:35:09;3.38;;;0.95;;
52368;SDS011;38298;50.346;3.526;2022-08-03T06:37:45;2.92;;;0.77;;
52368;SDS011;38298;50.346;3.526;2022-08-03T06:40:12;3.08;;;0.75;;
52368;SDS011;38298;50.346;3.526;2022-08-03T06:42:39;3.95;;;1.10;;
52368;SDS011;38298;50.346;3.526;2022-08-03T06:45:05;7.60;;;2.08;;
52368;SDS011;38298;50.346;3.526;2022-08-03T06:47:33;1.80;;;0.85;;
52368;SDS011;38298;50.346;3.526;2022-08-03T06:49:59;3.70;;;1.00;;
52368;SDS011;38298;50.346;3.526;2022-08-03T06:52:25;3.17;;;0.80;;
52368;SDS011;38298;50.346;3.526;2022-08-03T06:54:51;3.05;;;0.77;;
52368;SDS011;38298;50.346;3.526;2022-08-03T06:57:17;5.18;;;1.15;;
52368;SDS011;38298;50.346;3.526;2022-08-03T06:59:43;4.65;;;1.38;;
52368;SDS011;38298;50.346;3.526;2022-08-03T07:02:09;6.93;;;1.10;;
52368;SDS011;38298;50.346;3.526;2022-08-03T07:04:36;4.75;;;0.85;;
52368;SDS011;38298;50.346;3.526;2022-08-03T07:07:02;7.10;;;0.98;;
52368;SDS011;38298;50.346;3.526;2022-08-03T07:09:28;3.13;;;1.08;;
52368;SDS011;38298;50.346;3.526;2022-08-03T07:11:54;1.88;;;0.73;;
52368;SDS011;38298;50.346;3.526;2022-08-03T07:14:21;3.95;;;1.02;;
52368;SDS011;38298;50.346;3.526;2022-08-03T07:16:47;2.15;;;0.70;;
52368;SDS011;38298;50.346;3.526;2022-08-03T07:19:13;4.97;;;0.90;;
52368;SDS011;38298;50.346;3.526;2022-08-03T07:21:39;5.45;;;1.25;;
52368;SDS011;38298;50.346;3.526;2022-08-03T07:24:05;1.67;;;0.90;;
52368;SDS011;38298;50.346;3.526;2022-08-03T07:26:31;6.72;;;1.48;;
52368;SDS011;38298;50.346;3.526;2022-08-03T07:28:57;9.73;;;1.20;;
52368;SDS011;38298;50.346;3.526;2022-08-03T07:31:25;5.07;;;1.08;;
52368;SDS011;38298;50.346;3.526;2022-08-03T07:33:51;7.57;;;1.17;;
52368;SDS011;38298;50.346;3.526;2022-08-03T07:36:17;12.02;;;1.40;;
52368;SDS011;38298;50.346;3.526;2022-08-03T07:38:43;5.68;;;0.85;;
52368;SDS011;38298;50.346;3.526;2022-08-03T07:41:09;3.45;;;1.02;;
52368;SDS011;38298;50.346;3.526;2022-08-03T07:43:35;6.15;;;0.95;;
52368;SDS011;38298;50.346;3.526;2022-08-03T07:46:01;3.22;;;0.93;;
52368;SDS011;38298;50.346;3.526;2022-08-03T07:48:27;4.65;;;0.70;;
52368;SDS011;38298;50.346;3.526;2022-08-03T07:50:53;6.00;;;0.82;;
52368;SDS011;38298;50.346;3.526;2022-08-03T07:53:19;3.30;;;0.60;;
52368;SDS011;38298;50.346;3.526;2022-08-03T07:55:45;5.30;;;0.70;;
52368;SDS011;38298;50.346;3.526;2022-08-03T07:58:11;3.15;;;0.88;;
52368;SDS011;38298;50.346;3.526;2022-08-03T08:00:42;14.60;;;0.73;;
52368;SDS011;38298;50.346;3.526;2022-08-03T08:03:09;9.48;;;0.90;;
52368;SDS011;38298;50.346;3.526;2022-08-03T08:05:36;7.00;;;0.80;;
52368;SDS011;38298;50.346;3.526;2022-08-03T08:08:02;7.47;;;0.90;;
52368;SDS011;38298;50.346;3.526;2022-08-03T08:10:29;8.70;;;0.82;;
52368;SDS011;38298;50.346;3.526;2022-08-03T08:12:56;7.57;;;1.00;;
52368;SDS011;38298;50.346;3.526;2022-08-03T08:15:22;6.72;;;1.58;;
52368;SDS011;38298;50.346;3.526;2022-08-03T08:17:50;6.47;;;0.90;;
52368;SDS011;38298;50.346;3.526;2022-08-03T08:20:18;7.10;;;0.90;;
52368;SDS011;38298;50.346;3.526;2022-08-03T08:22:44;5.72;;;1.05;;
52368;SDS011;38298;50.346;3.526;2022-08-03T08:25:12;13.75;;;1.13;;
52368;SDS011;38298;50.346;3.526;2022-08-03T08:27:45;7.72;;;1.15;;
52368;SDS011;38298;50.346;3.526;2022-08-03T08:30:12;7.40;;;0.93;;
52368;SDS011;38298;50.346;3.526;2022-08-03T08:32:39;7.13;;;0.95;;
52368;SDS011;38298;50.346;3.526;2022-08-03T08:35:05;6.40;;;0.60;;
52368;SDS011;38298;50.346;3.526;2022-08-03T08:37:32;5.95;;;0.80;;
52368;SDS011;38298;50.346;3.526;2022-08-03T08:39:58;2.83;;;0.68;;
52368;SDS011;38298;50.346;3.526;2022-08-03T08:42:24;9.32;;;0.88;;
52368;SDS011;38298;50.346;3.526;2022-08-03T08:44:50;3.20;;;0.70;;
52368;SDS011;38298;50.346;3.526;2022-08-03T08:47:22;4.65;;;0.90;;
52368;SDS011;38298;50.346;3.526;2022-08-03T08:49:51;5.75;;;0.80;;
52368;SDS011;38298;50.346;3.526;2022-08-03T08:52:18;8.82;;;0.50;;
52368;SDS011;38298;50.346;3.526;2022-08-03T08:54:46;3.72;;;0.50;;
52368;SDS011;38298;50.346;3.526;2022-08-03T08:57:12;3.33;;;0.55;;
52368;SDS011;38298;50.346;3.526;2022-08-03T08:59:38;5.25;;;0.90;;
52368;SDS011;38298;50.346;3.526;2022-08-03T09:02:04;4.45;;;0.80;;
52368;SDS011;38298;50.346;3.526;2022-08-03T09:04:30;6.45;;;1.33;;
52368;SDS011;38298;50.346;3.526;2022-08-03T09:06:56;8.60;;;0.82;;
52368;SDS011;38298;50.346;3.526;2022-08-03T09:09:23;3.60;;;0.80;;
52368;SDS011;38298;50.346;3.526;2022-08-03T09:11:49;5.78;;;0.68;;
52368;SDS011;38298;50.346;3.526;2022-08-03T09:14:15;2.13;;;0.45;;
52368;SDS011;38298;50.346;3.526;2022-08-03T09:16:56;2.58;;;0.57;;
52368;SDS011;38298;50.346;3.526;2022-08-03T09:19:29;4.95;;;0.70;;
52368;SDS011;38298;50.346;3.526;2022-08-03T09:22:12;1.95;;;0.57;;
52368;SDS011;38298;50.346;3.526;2022-08-03T09:24:55;2.22;;;0.75;;
52368;SDS011;38298;50.346;3.526;2022-08-03T09:27:22;4.85;;;0.50;;
52368;SDS011;38298;50.346;3.526;2022-08-03T09:29:49;2.47;;;0.52;;
52368;SDS011;38298;50.346;3.526;2022-08-03T09:32:15;2.08;;;0.52;;
52368;SDS011;38298;50.346;3.526;2022-08-03T09:34:45;2.92;;;0.40;;
52368;SDS011;38298;50.346;3.526;2022-08-03T09:37:15;3.78;;;0.52;;
52368;SDS011;38298;50.346;3.526;2022-08-03T09:39:41;1.85;;;0.50;;
52368;SDS011;38298;50.346;3.526;2022-08-03T09:44:36;2.60;;;0.60;;
52368;SDS011;38298;50.346;3.526;2022-08-03T09:47:02;1.60;;;0.45;;
52368;SDS011;38298;50.346;3.526;2022-08-03T09:49:30;1.75;;;0.60;;
52368;SDS011;38298;50.346;3.526;2022-08-03T09:51:56;2.42;;;0.50;;
52368;SDS011;38298;50.346;3.526;2022-08-03T09:54:29;2.85;;;0.60;;
52368;SDS011;38298;50.346;3.526;2022-08-03T09:56:55;2.80;;;0.30;;
52368;SDS011;38298;50.346;3.526;2022-08-03T09:59:23;1.92;;;0.68;;
52368;SDS011;38298;50.346;3.526;2022-08-03T10:01:50;1.33;;;0.32;;
52368;SDS011;38298;50.346;3.526;2022-08-03T10:04:16;3.92;;;0.43;;
52368;SDS011;38298;50.346;3.526;2022-08-03T10:06:43;1.83;;;0.30;;
52368;SDS011;38298;50.346;3.526;2022-08-03T10:11:36;0.82;;;0.30;;
52368;SDS011;38298;50.346;3.526;2022-08-03T10:14:02;7.47;;;0.60;;
52368;SDS011;38298;50.346;3.526;2022-08-03T10:16:33;5.00;;;0.50;;
52368;SDS011;38298;50.346;3.526;2022-08-03T10:19:00;3.03;;;0.35;;
52368;SDS011;38298;50.346;3.526;2022-08-03T10:21:26;3.63;;;0.60;;
52368;SDS011;38298;50.346;3.526;2022-08-03T10:23:57;1.27;;;0.47;;
52368;SDS011;38298;50.346;3.526;2022-08-03T10:26:24;6.78;;;0.52;;
52368;SDS011;38298;50.346;3.526;2022-08-03T10:28:52;1.58;;;0.40;;
52368;SDS011;38298;50.346;3.526;2022-08-03T10:31:19;1.95;;;0.40;;
52368;SDS011;38298;50.346;3.526;2022-08-03T10:33:48;3.03;;;0.60;;
52368;SDS011;38298;50.346;3.526;2022-08-03T10:36:14;1.17;;;0.35;;
52368;SDS011;38298;50.346;3.526;2022-08-03T10:38:47;2.17;;;0.80;;
52368;SDS011;38298;50.346;3.526;2022-08-03T10:41:18;3.55;;;0.70;;
52368;SDS011;38298;50.346;3.526;2022-08-03T10:43:46;4.15;;;0.38;;
52368;SDS011;38298;50.346;3.526;2022-08-03T10:46:13;1.10;;;0.40;;
52368;SDS011;38298;50.346;3.526;2022-08-03T10:48:40;2.65;;;0.50;;
52368;SDS011;38298;50.346;3.526;2022-08-03T10:51:06;2.85;;;0.40;;
52368;SDS011;38298;50.346;3.526;2022-08-03T10:53:33;5.55;;;0.40;;
52368;SDS011;38298;50.346;3.526;2022-08-03T10:56:00;2.58;;;0.75;;
52368;SDS011;38298;50.346;3.526;2022-08-03T10:58:45;5.25;;;0.35;;
52368;SDS011;38298;50.346;3.526;2022-08-03T11:01:13;1.55;;;0.80;;
52368;SDS011;38298;50.346;3.526;2022-08-03T11:04:25;1.00;;;0.40;;
52368;SDS011;38298;50.346;3.526;2022-08-03T11:06:26;1.35;;;0.30;;
52368;SDS011;38298;50.346;3.526;2022-08-03T11:09:12;1.77;;;0.30;;
52368;SDS011;38298;50.346;3.526;2022-08-03T11:11:40;1.52;;;0.40;;
52368;SDS011;38298;50.346;3.526;2022-08-03T11:14:17;0.80;;;0.40;;
52368;SDS011;38298;50.346;3.526;2022-08-03T11:16:49;2.70;;;0.45;;
52368;SDS011;38298;50.346;3.526;2022-08-03T11:19:20;4.70;;;0.45;;
52368;SDS011;38298;50.346;3.526;2022-08-03T11:21:52;2.10;;;0.50;;
52368;SDS011;38298;50.346;3.526;2022-08-03T11:27:16;3.38;;;0.68;;
52368;SDS011;38298;50.346;3.526;2022-08-03T11:35:09;3.30;;;0.50;;
52368;SDS011;38298;50.346;3.526;2022-08-03T11:37:36;1.75;;;0.55;;
52368;SDS011;38298;50.346;3.526;2022-08-03T11:42:57;3.38;;;0.63;;
52368;SDS011;38298;50.346;3.526;2022-08-03T11:45:23;1.85;;;0.30;;
52368;SDS011;38298;50.346;3.526;2022-08-03T11:47:49;4.80;;;0.68;;
52368;SDS011;38298;50.346;3.526;2022-08-03T11:50:18;5.68;;;0.57;;
52368;SDS011;38298;50.346;3.526;2022-08-03T11:52:45;2.33;;;0.50;;
52368;SDS011;38298;50.346;3.526;2022-08-03T11:55:12;2.67;;;0.50;;
52368;SDS011;38298;50.346;3.526;2022-08-03T11:57:38;4.25;;;0.70;;
52368;SDS011;38298;50.346;3.526;2022-08-03T12:00:26;3.15;;;0.52;;
52368;SDS011;38298;50.346;3.526;2022-08-03T12:03:03;4.28;;;0.40;;
52368;SDS011;38298;50.346;3.526;2022-08-03T12:05:48;2.38;;;0.40;;
52368;SDS011;38298;50.346;3.526;2022-08-03T12:08:16;1.20;;;0.60;;
52368;SDS011;38298;50.346;3.526;2022-08-03T12:10:46;4.03;;;0.93;;
52368;SDS011;38298;50.346;3.526;2022-08-03T12:13:12;2.72;;;0.40;;
52368;SDS011;38298;50.346;3.526;2022-08-03T12:15:39;3.83;;;0.90;;
52368;SDS011;38298;50.346;3.526;2022-08-03T12:18:13;1.50;;;0.50;;
52368;SDS011;38298;50.346;3.526;2022-08-03T12:20:39;2.85;;;1.20;;
52368;SDS011;38298;50.346;3.526;2022-08-03T12:23:05;3.38;;;0.70;;
52368;SDS011;38298;50.346;3.526;2022-08-03T12:25:32;1.83;;;0.40;;
52368;SDS011;38298;50.346;3.526;2022-08-03T12:28:18;3.47;;;0.57;;
52368;SDS011;38298;50.346;3.526;2022-08-03T12:30:47;5.22;;;0.40;;
52368;SDS011;38298;50.346;3.526;2022-08-03T12:34:00;4.05;;;0.77;;
52368;SDS011;38298;50.346;3.526;2022-08-03T12:36:08;0.60;;;0.55;;
52368;SDS011;38298;50.346;3.526;2022-08-03T12:38:35;2.85;;;0.60;;
52368;SDS011;38298;50.346;3.526;2022-08-03T12:41:05;0.90;;;0.60;;
52368;SDS011;38298;50.346;3.526;2022-08-03T12:43:32;0.50;;;0.40;;
52368;SDS011;38298;50.346;3.526;2022-08-03T12:48:33;1.10;;;0.52;;
52368;SDS011;38298;50.346;3.526;2022-08-03T12:51:06;1.15;;;0.63;;
52368;SDS011;38298;50.346;3.526;2022-08-03T12:53:32;1.92;;;0.65;;
52368;SDS011;38298;50.346;3.526;2022-08-03T12:56:02;3.08;;;0.50;;
52368;SDS011;38298;50.346;3.526;2022-08-03T12:58:29;3.88;;;0.90;;
52368;SDS011;38298;50.346;3.526;2022-08-03T13:00:57;1.10;;;0.50;;
52368;SDS011;38298;50.346;3.526;2022-08-03T13:03:23;3.42;;;0.60;;
52368;SDS011;38298;50.346;3.526;2022-08-03T13:05:50;3.78;;;0.50;;
52368;SDS011;38298;50.346;3.526;2022-08-03T13:08:16;2.28;;;0.60;;
52368;SDS011;38298;50.346;3.526;2022-08-03T13:10:43;1.08;;;0.30;;
52368;SDS011;38298;50.346;3.526;2022-08-03T13:13:10;1.52;;;0.60;;
52368;SDS011;38298;50.346;3.526;2022-08-03T13:15:36;5.43;;;0.60;;
52368;SDS011;38298;50.346;3.526;2022-08-03T13:18:02;1.90;;;0.60;;
52368;SDS011;38298;50.346;3.526;2022-08-03T13:20:29;4.28;;;0.80;;
52368;SDS011;38298;50.346;3.526;2022-08-03T13:22:55;3.55;;;0.40;;
52368;SDS011;38298;50.346;3.526;2022-08-03T13:25:21;2.58;;;0.60;;
52368;SDS011;38298;50.346;3.526;2022-08-03T13:27:47;0.85;;;0.32;;
52368;SDS011;38298;50.346;3.526;2022-08-03T13:30:14;1.58;;;0.40;;
52368;SDS011;38298;50.346;3.526;2022-08-03T13:32:40;3.70;;;0.45;;
52368;SDS011;38298;50.346;3.526;2022-08-03T13:35:07;1.48;;;0.45;;
52368;SDS011;38298;50.346;3.526;2022-08-03T13:37:33;1.95;;;0.30;;
52368;SDS011;38298;50.346;3.526;2022-08-03T13:40:00;5.18;;;0.60;;
52368;SDS011;38298;50.346;3.526;2022-08-03T13:42:27;2.13;;;0.38;;
52368;SDS011;38298;50.346;3.526;2022-08-03T13:44:54;2.88;;;0.68;;
52368;SDS011;38298;50.346;3.526;2022-08-03T13:47:20;0.70;;;0.40;;
52368;SDS011;38298;50.346;3.526;2022-08-03T13:49:46;5.45;;;0.50;;
52368;SDS011;38298;50.346;3.526;2022-08-03T13:52:14;4.10;;;0.50;;
52368;SDS011;38298;50.346;3.526;2022-08-03T13:54:40;2.75;;;0.40;;
52368;SDS011;38298;50.346;3.526;2022-08-03T13:57:09;0.73;;;0.30;;
52368;SDS011;38298;50.346;3.526;2022-08-03T13:59:36;0.98;;;0.30;;
52368;SDS011;38298;50.346;3.526;2022-08-03T14:02:02;1.48;;;0.30;;
52368;SDS011;38298;50.346;3.526;2022-08-03T14:04:28;0.32;;;0.30;;
52368;SDS011;38298;50.346;3.526;2022-08-03T14:06:54;4.78;;;0.80;;
52368;SDS011;38298;50.346;3.526;2022-08-03T14:09:21;1.55;;;0.60;;
52368;SDS011;38298;50.346;3.526;2022-08-03T14:11:47;2.50;;;0.30;;
52368;SDS011;38298;50.346;3.526;2022-08-03T14:14:13;3.22;;;0.50;;
52368;SDS011;38298;50.346;3.526;2022-08-03T14:16:39;0.50;;;0.30;;
52368;SDS011;38298;50.346;3.526;2022-08-03T14:19:05;2.65;;;0.40;;
52368;SDS011;38298;50.346;3.526;2022-08-03T14:21:32;2.38;;;0.30;;
52368;SDS011;38298;50.346;3.526;2022-08-03T14:23:58;5.15;;;0.60;;
52368;SDS011;38298;50.346;3.526;2022-08-03T14:26:24;1.15;;;0.50;;
52368;SDS011;38298;50.346;3.526;2022-08-03T14:28:50;1.77;;;0.35;;
52368;SDS011;38298;50.346;3.526;2022-08-03T14:31:16;0.52;;;0.22;;
52368;SDS011;38298;50.346;3.526;2022-08-03T14:33:42;0.63;;;0.40;;
52368;SDS011;38298;50.346;3.526;2022-08-03T14:36:09;5.60;;;0.70;;
52368;SDS011;38298;50.346;3.526;2022-08-03T14:38:35;2.53;;;0.47;;
52368;SDS011;38298;50.346;3.526;2022-08-03T14:41:01;2.95;;;0.68;;
52368;SDS011;38298;50.346;3.526;2022-08-03T14:43:27;0.32;;;0.20;;
52368;SDS011;38298;50.346;3.526;2022-08-03T14:45:53;1.23;;;0.52;;
52368;SDS011;38298;50.346;3.526;2022-08-03T14:48:19;4.82;;;0.60;;
52368;SDS011;38298;50.346;3.526;2022-08-03T14:50:46;2.67;;;0.45;;
52368;SDS011;38298;50.346;3.526;2022-08-03T14:53:12;1.10;;;0.50;;
52368;SDS011;38298;50.346;3.526;2022-08-03T14:55:38;1.95;;;0.50;;
52368;SDS011;38298;50.346;3.526;2022-08-03T14:58:04;0.75;;;0.40;;
52368;SDS011;38298;50.346;3.526;2022-08-03T15:00:31;0.22;;;0.20;;
52368;SDS011;38298;50.346;3.526;2022-08-03T15:02:58;2.42;;;0.52;;
52368;SDS011;38298;50.346;3.526;2022-08-03T15:05:24;1.92;;;0.50;;
52368;SDS011;38298;50.346;3.526;2022-08-03T15:07:50;0.40;;;0.35;;
52368;SDS011;38298;50.346;3.526;2022-08-03T15:10:16;2.35;;;0.50;;
52368;SDS011;38298;50.346;3.526;2022-08-03T15:12:42;1.13;;;0.28;;
52368;SDS011;38298;50.346;3.526;2022-08-03T15:15:09;0.55;;;0.55;;
52368;SDS011;38298;50.346;3.526;2022-08-03T15:17:35;3.38;;;0.50;;
52368;SDS011;38298;50.346;3.526;2022-08-03T15:20:01;5.72;;;0.40;;
52368;SDS011;38298;50.346;3.526;2022-08-03T15:22:27;0.47;;;0.20;;
52368;SDS011;38298;50.346;3.526;2022-08-03T15:24:53;0.63;;;0.30;;
52368;SDS011;38298;50.346;3.526;2022-08-03T15:27:20;1.08;;;0.40;;